createdAt,value
2022-11-10T00:00:23.501Z,4.30
2022-11-10T00:04:25.020Z,3.40
2022-11-10T00:08:26.513Z,1.42
2022-11-10T00:12:28.074Z,2.63
2022-11-10T00:16:48.254Z,1.65
2022-11-10T00:20:49.699Z,1.80
2022-11-10T00:24:52.181Z,3.20
2022-11-10T00:28:55.135Z,1.80
2022-11-10T00:32:56.563Z,4.82
2022-11-10T00:36:58.044Z,5.22
2022-11-10T00:41:00.421Z,3.30
2022-11-10T00:45:01.875Z,1.67
2022-11-10T00:49:03.540Z,2.72
2022-11-10T00:53:04.983Z,1.25
2022-11-10T00:57:06.569Z,2.20
2022-11-10T01:01:09.028Z,5.13
2022-11-10T01:05:10.740Z,2.45
2022-11-10T01:09:12.425Z,2.25
2022-11-10T01:13:14.412Z,4.22
2022-11-10T01:17:16.010Z,2.35
2022-11-10T01:21:18.557Z,1.80
2022-11-10T01:25:20.740Z,1.83
2022-11-10T01:29:22.367Z,3.90
2022-11-10T01:33:24.255Z,2.70
2022-11-10T01:37:26.101Z,2.83
2022-11-10T01:41:28.067Z,3.35
2022-11-10T01:45:44.207Z,6.22
2022-11-10T01:49:45.843Z,3.17
2022-11-10T01:53:51.626Z,3.92
2022-11-10T01:57:53.326Z,3.20
2022-11-10T02:01:59.022Z,3.85
2022-11-10T02:06:00.733Z,4.38
2022-11-10T02:10:03.940Z,3.30
2022-11-10T02:14:05.720Z,3.20
2022-11-10T02:18:07.274Z,5.30
2022-11-10T02:22:08.745Z,3.78
2022-11-10T02:26:10.300Z,4.05
2022-11-10T02:30:12.532Z,7.88
2022-11-10T02:34:14.559Z,5.53
2022-11-10T02:38:16.181Z,2.80
2022-11-10T02:42:17.874Z,3.35
2022-11-10T02:46:19.502Z,3.97
2022-11-10T02:50:21.022Z,2.72
2022-11-10T02:54:22.474Z,4.18
2022-11-10T02:58:24.084Z,4.80
2022-11-10T03:02:29.793Z,4.35
2022-11-10T03:06:33.973Z,2.90
2022-11-10T03:10:35.512Z,2.70
2022-11-10T03:14:37.110Z,3.22
2022-11-10T03:18:38.681Z,4.60
2022-11-10T03:22:40.245Z,4.43
2022-11-10T03:26:41.845Z,1.80
2022-11-10T03:30:43.905Z,5.82
2022-11-10T03:34:45.315Z,1.48
2022-11-10T03:38:46.951Z,4.45
2022-11-10T03:42:48.348Z,3.63
2022-11-10T03:46:51.760Z,3.70
2022-11-10T03:50:53.439Z,8.13
2022-11-10T03:54:59.205Z,2.38
2022-11-10T03:59:03.601Z,2.50
2022-11-10T04:03:05.003Z,3.58
2022-11-10T04:07:25.182Z,2.88
2022-11-10T04:11:49.485Z,2.33
2022-11-10T04:15:51.935Z,3.83
2022-11-10T04:19:53.914Z,2.88
2022-11-10T04:23:55.592Z,2.60
2022-11-10T04:27:57.072Z,3.10
2022-11-10T04:31:58.663Z,2.78
2022-11-10T04:36:00.598Z,2.22
2022-11-10T04:40:02.104Z,2.72
2022-11-10T04:44:03.924Z,2.05
2022-11-10T04:48:05.785Z,3.72
2022-11-10T04:52:07.368Z,3.65
2022-11-10T04:56:16.079Z,2.92
2022-11-10T05:00:18.005Z,4.88
2022-11-10T05:04:19.642Z,3.03
2022-11-10T05:08:21.085Z,5.43
2022-11-10T05:12:22.635Z,2.67
2022-11-10T05:16:24.247Z,4.10
2022-11-10T05:20:26.729Z,3.38
2022-11-10T05:24:28.333Z,3.95
2022-11-10T05:28:29.744Z,3.05
2022-11-10T05:32:31.199Z,2.42
2022-11-10T05:36:32.857Z,2.28
2022-11-10T05:40:35.019Z,2.75
2022-11-10T05:44:36.656Z,3.42
2022-11-10T05:48:38.130Z,2.63
2022-11-10T05:52:46.325Z,3.75
2022-11-10T05:56:51.804Z,3.30
2022-11-10T06:00:53.262Z,5.38
2022-11-10T06:04:54.711Z,5.15
2022-11-10T06:08:56.863Z,3.15
2022-11-10T06:12:58.409Z,3.78
2022-11-10T06:17:00.085Z,3.50
2022-11-10T06:21:02.463Z,4.68
2022-11-10T06:25:04.266Z,3.67
2022-11-10T06:29:05.961Z,4.13
2022-11-10T06:33:07.556Z,7.43
2022-11-10T06:37:09.190Z,5.78
2022-11-10T06:41:10.642Z,4.35
2022-11-10T06:45:12.042Z,5.13
2022-11-10T06:49:14.457Z,6.80
2022-11-10T06:53:17.432Z,4.97
2022-11-10T06:57:19.178Z,4.63
2022-11-10T07:01:26.230Z,5.55
2022-11-10T07:05:28.237Z,5.93
2022-11-10T07:09:29.679Z,7.15
2022-11-10T07:13:31.156Z,5.15
2022-11-10T07:17:32.777Z,5.93
2022-11-10T07:21:34.184Z,6.65
2022-11-10T07:25:39.206Z,9.68
2022-11-10T07:29:41.068Z,5.90
2022-11-10T07:33:43.992Z,9.07
2022-11-10T07:37:45.626Z,9.07
2022-11-10T07:41:52.118Z,10.30
2022-11-10T07:45:54.010Z,12.27
2022-11-10T07:49:55.430Z,9.07
2022-11-10T07:53:56.882Z,12.77
2022-11-10T07:57:58.904Z,11.63
2022-11-10T08:02:00.453Z,15.85
2022-11-10T08:06:01.952Z,11.40
2022-11-10T08:10:03.957Z,6.82
2022-11-10T08:14:05.641Z,12.35
2022-11-10T08:18:14.613Z,7.47
2022-11-10T08:22:16.070Z,5.55
2022-11-10T08:26:17.889Z,8.60
2022-11-10T08:30:19.403Z,11.45
2022-11-10T08:34:22.167Z,8.35
2022-11-10T08:38:24.474Z,15.80
2022-11-10T08:42:26.020Z,7.47
2022-11-10T08:46:27.619Z,12.85
2022-11-10T08:50:29.606Z,5.25
2022-11-10T08:54:30.995Z,7.95
2022-11-10T08:58:32.409Z,5.50
2022-11-10T09:02:33.849Z,6.47
2022-11-10T09:06:36.643Z,3.17
2022-11-10T09:10:44.108Z,5.38
2022-11-10T09:14:45.557Z,4.25
2022-11-10T09:18:47.175Z,7.88
2022-11-10T09:22:49.000Z,3.97
2022-11-10T09:26:50.493Z,7.43
2022-11-10T09:30:52.721Z,7.78
2022-11-10T09:34:54.217Z,6.07
2022-11-10T09:38:55.690Z,4.60
2022-11-10T09:42:59.716Z,6.57
2022-11-10T09:47:05.041Z,7.93
2022-11-10T09:51:13.052Z,7.85
2022-11-10T09:55:32.164Z,4.45
2022-11-10T09:59:35.151Z,4.82
2022-11-10T10:03:45.882Z,5.35
2022-11-10T10:07:55.766Z,4.53
2022-11-10T10:12:20.550Z,7.30
2022-11-10T10:16:33.074Z,8.30
2022-11-10T10:20:57.218Z,6.93
2022-11-10T10:25:02.239Z,2.08
2022-11-10T10:29:14.495Z,8.65
2022-11-10T10:33:21.421Z,3.88
2022-11-10T10:37:25.816Z,2.07
2022-11-10T10:41:30.119Z,4.10
2022-11-10T10:45:32.470Z,3.67
2022-11-10T10:49:34.122Z,5.68
2022-11-10T10:53:47.420Z,3.78
2022-11-10T10:57:51.466Z,1.83
2022-11-10T11:01:54.160Z,2.13
2022-11-10T11:06:14.548Z,4.00
2022-11-10T11:10:28.519Z,7.18
2022-11-10T11:14:31.940Z,1.23
2022-11-10T11:18:34.642Z,4.28
2022-11-10T11:22:52.786Z,2.95
2022-11-10T11:27:04.303Z,5.28
2022-11-10T11:31:15.199Z,2.75
2022-11-10T11:35:41.282Z,4.53
2022-11-10T11:40:03.472Z,2.72
2022-11-10T11:44:24.867Z,2.63
2022-11-10T11:48:33.568Z,3.55
2022-11-10T11:52:46.029Z,2.22
2022-11-10T11:56:49.756Z,2.97
2022-11-10T12:00:51.147Z,5.03
2022-11-10T12:05:08.065Z,4.57
2022-11-10T12:09:19.791Z,4.65
2022-11-10T12:13:30.276Z,5.00
2022-11-10T12:18:09.556Z,2.15
2022-11-10T12:22:31.423Z,3.95
2022-11-10T12:26:58.866Z,2.25
2022-11-10T12:31:05.752Z,3.80
2022-11-10T12:35:12.468Z,3.67
2022-11-10T12:39:43.085Z,1.95
2022-11-10T12:44:05.517Z,4.22
2022-11-10T12:48:10.836Z,5.10
2022-11-10T12:52:19.930Z,3.67
2022-11-10T12:56:27.267Z,4.22
2022-11-10T13:00:32.703Z,2.45
2022-11-10T13:04:34.624Z,4.20
2022-11-10T13:08:44.964Z,2.10
2022-11-10T13:12:59.361Z,3.28
2022-11-10T13:17:00.844Z,3.08
2022-11-10T13:21:02.405Z,2.83
2022-11-10T13:25:38.092Z,2.40
2022-11-10T13:29:42.688Z,4.05
2022-11-10T13:34:23.750Z,3.50
2022-11-10T13:38:36.739Z,3.08
2022-11-10T13:42:40.970Z,3.47
2022-11-10T13:47:01.310Z,3.80
2022-11-10T13:51:38.260Z,0.70
2022-11-10T13:56:03.038Z,3.30
2022-11-10T14:00:33.533Z,2.58
2022-11-10T14:04:45.268Z,3.67
2022-11-10T14:08:59.301Z,2.17
2022-11-10T14:13:11.172Z,4.03
2022-11-10T14:17:28.922Z,1.55
2022-11-10T14:21:35.355Z,4.18
2022-11-10T14:25:41.207Z,2.88
2022-11-10T14:29:43.157Z,2.75
2022-11-10T14:33:56.780Z,8.77
2022-11-10T14:38:03.676Z,5.53
2022-11-10T14:42:05.510Z,2.83
2022-11-10T14:46:07.761Z,4.72
2022-11-10T14:50:15.209Z,1.95
2022-11-10T14:54:23.629Z,4.10
2022-11-10T14:58:33.798Z,3.70
2022-11-10T15:02:35.625Z,2.58
2022-11-10T15:06:37.631Z,5.05
2022-11-10T15:10:39.746Z,2.75
2022-11-10T15:14:44.820Z,4.65
2022-11-10T15:18:49.487Z,3.90
2022-11-10T15:22:50.990Z,2.88
2022-11-10T15:26:53.009Z,5.53
2022-11-10T15:30:57.634Z,4.07
2022-11-10T15:35:24.053Z,3.47
2022-11-10T15:39:27.534Z,4.35
2022-11-10T15:43:29.172Z,1.42
2022-11-10T15:47:30.708Z,5.95
2022-11-10T15:51:32.542Z,3.95
2022-11-10T15:55:35.841Z,4.78
2022-11-10T15:59:37.293Z,5.85
2022-11-10T16:03:38.816Z,6.43
2022-11-10T16:07:40.443Z,3.50
2022-11-10T16:11:44.928Z,7.43
2022-11-10T16:15:46.708Z,4.30
2022-11-10T16:19:48.155Z,6.53
2022-11-10T16:23:50.053Z,4.60
2022-11-10T16:27:51.721Z,6.00
2022-11-10T16:31:53.150Z,10.38
2022-11-10T16:35:56.124Z,11.40
2022-11-10T16:39:57.565Z,11.93
2022-11-10T16:44:00.157Z,10.88
2022-11-10T16:48:08.100Z,9.00
2022-11-10T16:52:15.336Z,11.23
2022-11-10T16:56:17.296Z,7.13
2022-11-10T17:00:19.398Z,8.38
2022-11-10T17:04:21.048Z,5.63
2022-11-10T17:08:28.253Z,3.85
2022-11-10T17:12:30.588Z,6.90
2022-11-10T17:16:35.247Z,5.40
2022-11-10T17:20:38.129Z,6.22
2022-11-10T17:24:39.935Z,8.23
2022-11-10T17:28:41.798Z,6.90
2022-11-10T17:33:04.208Z,6.90
2022-11-10T17:37:05.191Z,5.60
2022-11-10T17:41:07.816Z,6.43
2022-11-10T17:45:19.730Z,10.75
2022-11-10T17:49:21.322Z,9.73
2022-11-10T17:53:26.145Z,7.13
2022-11-10T17:57:27.971Z,11.45
2022-11-10T18:01:29.844Z,10.65
2022-11-10T18:05:31.284Z,12.40
2022-11-10T18:09:32.829Z,11.15
2022-11-10T18:13:34.619Z,15.45
2022-11-10T18:17:36.039Z,6.47
2022-11-10T18:21:37.479Z,5.85
2022-11-10T18:25:40.141Z,10.23
2022-11-10T18:29:41.772Z,19.17
2022-11-10T18:33:43.506Z,14.07
2022-11-10T18:37:45.030Z,9.07
2022-11-10T18:41:49.632Z,9.75
2022-11-10T18:45:54.681Z,11.25
2022-11-10T18:49:56.135Z,11.23
2022-11-10T18:53:57.857Z,10.23
2022-11-10T18:58:00.073Z,6.68
2022-11-10T19:02:01.828Z,8.57
2022-11-10T19:06:04.008Z,10.63
2022-11-10T19:10:05.871Z,7.78
2022-11-10T19:14:07.485Z,10.48
2022-11-10T19:18:09.120Z,10.43
2022-11-10T19:22:10.623Z,8.27
2022-11-10T19:26:20.870Z,8.88
2022-11-10T19:30:24.528Z,10.48
2022-11-10T19:34:26.001Z,8.27
2022-11-10T19:38:28.845Z,9.27
2022-11-10T19:42:30.879Z,8.40
2022-11-10T19:46:36.575Z,8.90
2022-11-10T20:00:12.421Z,11.13
2022-11-10T20:10:18.443Z,9.95
2022-11-10T20:14:22.938Z,9.70
2022-11-10T20:41:30.912Z,10.38
2022-11-10T21:04:27.285Z,10.20
2022-11-10T21:08:35.666Z,6.63
2022-11-10T21:12:56.785Z,20.38
2022-11-10T21:30:15.420Z,9.57
2022-11-10T22:17:49.672Z,12.45
2022-11-10T22:26:48.967Z,15.98
2022-11-10T22:31:08.770Z,10.50
2022-11-10T22:35:30.672Z,10.25
2022-11-10T22:40:25.712Z,35.45
2022-11-10T22:44:56.730Z,17.98
2022-11-10T22:49:16.829Z,14.73
2022-11-10T22:53:31.228Z,12.82
2022-11-10T22:57:32.808Z,17.05
2022-11-10T23:01:54.250Z,10.40
2022-11-10T23:06:34.406Z,10.48
2022-11-10T23:11:01.381Z,11.27
2022-11-10T23:15:51.043Z,11.10
2022-11-10T23:25:01.788Z,9.20
2022-11-10T23:34:14.224Z,9.57
2022-11-10T23:38:25.751Z,11.00
2022-11-10T23:51:49.984Z,9.05
